createdAt,value
2023-04-05T00:01:34.088Z,102244.25
2023-04-05T00:04:02.579Z,102237.00
2023-04-05T00:06:30.925Z,102236.63
2023-04-05T00:09:04.031Z,102231.09
2023-04-05T00:11:34.867Z,102232.84
2023-04-05T00:14:03.667Z,102230.75
2023-04-05T00:16:30.852Z,102235.25
2023-04-05T00:18:58.327Z,102231.84
2023-04-05T00:21:25.508Z,102224.69
2023-04-05T00:24:03.024Z,102218.25
2023-04-05T00:26:30.004Z,102216.78
2023-04-05T00:28:56.923Z,102212.88
2023-04-05T00:31:24.005Z,102213.44
2023-04-05T00:33:51.101Z,102202.91
2023-04-05T00:36:20.462Z,102205.16
2023-04-05T00:38:49.746Z,102209.13
2023-04-05T00:41:17.008Z,102202.28
2023-04-05T00:43:44.209Z,102200.09
2023-04-05T00:46:11.611Z,102201.56
2023-04-05T00:48:39.435Z,102193.22
2023-04-05T00:51:09.647Z,102199.56
2023-04-05T00:53:48.256Z,102199.06
2023-04-05T00:56:16.821Z,102196.94
2023-04-05T00:58:58.346Z,102205.44
2023-04-05T01:01:28.097Z,102199.94
2023-04-05T01:04:02.941Z,102193.06
2023-04-05T01:06:53.486Z,102195.25
2023-04-05T01:10:00.797Z,102194.31
2023-04-05T01:12:39.746Z,102193.81
2023-04-05T01:15:19.594Z,102195.63
2023-04-05T01:18:03.009Z,102194.44
2023-04-05T01:20:48.198Z,102194.06
2023-04-05T01:23:49.590Z,102188.69
2023-04-05T01:26:41.512Z,102186.06
2023-04-05T01:29:52.868Z,102183.19
2023-04-05T01:32:37.802Z,102177.22
2023-04-05T01:35:35.316Z,102166.53
2023-04-05T01:38:04.846Z,102166.41
2023-04-05T01:40:35.536Z,102162.63
2023-04-05T01:43:20.288Z,102153.78
2023-04-05T01:45:56.760Z,102157.59
2023-04-05T01:48:29.195Z,102148.09
2023-04-05T01:50:58.319Z,102141.53
2023-04-05T01:53:26.477Z,102145.84
2023-04-05T01:56:15.278Z,102144.88
2023-04-05T01:58:52.908Z,102140.22
2023-04-05T02:01:22.373Z,102136.00
2023-04-05T02:03:49.659Z,102130.03
2023-04-05T02:06:22.146Z,102129.50
2023-04-05T02:08:52.069Z,102128.34
2023-04-05T02:11:19.166Z,102123.31
2023-04-05T02:13:54.493Z,102126.03
2023-04-05T02:16:35.741Z,102123.91
2023-04-05T02:19:05.638Z,102122.72
2023-04-05T02:21:35.783Z,102121.88
2023-04-05T02:24:11.693Z,102126.53
2023-04-05T02:26:41.604Z,102123.38
2023-04-05T02:29:08.751Z,102116.03
2023-04-05T02:31:39.390Z,102117.91
2023-04-05T02:34:24.555Z,102104.84
2023-04-05T02:37:12.479Z,102112.47
2023-04-05T02:39:48.271Z,102107.09
2023-04-05T02:42:15.851Z,102108.63
2023-04-05T02:44:43.017Z,102103.41
2023-04-05T02:47:09.961Z,102091.88
2023-04-05T02:49:37.747Z,102101.28
2023-04-05T02:52:05.637Z,102104.84
2023-04-05T02:54:45.743Z,102100.50
2023-04-05T02:57:16.394Z,102100.03
2023-04-05T02:59:47.050Z,102104.59
2023-04-05T03:02:15.389Z,102092.47
2023-04-05T03:04:45.862Z,102101.47
2023-04-05T03:07:18.598Z,102092.09
2023-04-05T03:09:47.531Z,102095.81
2023-04-05T03:12:14.782Z,102100.47
2023-04-05T03:14:47.752Z,102092.63
2023-04-05T03:17:17.668Z,102098.94
2023-04-05T03:19:47.229Z,102091.56
2023-04-05T03:22:14.187Z,102095.50
2023-04-05T03:24:53.928Z,102102.44
2023-04-05T03:27:42.567Z,102098.53
2023-04-05T03:30:13.953Z,102112.44
2023-04-05T03:32:56.895Z,102099.16
2023-04-05T03:38:07.711Z,102099.31
2023-04-05T03:40:35.652Z,102095.94
2023-04-05T03:43:03.043Z,102104.59
2023-04-05T03:45:30.218Z,102092.19
2023-04-05T03:47:59.847Z,102092.94
2023-04-05T03:50:37.696Z,102099.03
2023-04-05T03:53:04.748Z,102087.13
2023-04-05T03:55:32.095Z,102083.19
2023-04-05T03:57:59.015Z,102090.66
2023-04-05T04:00:25.951Z,102076.75
2023-04-05T04:02:56.685Z,102066.53
2023-04-05T04:05:23.687Z,102069.00
2023-04-05T04:07:53.483Z,102072.72
2023-04-05T04:10:20.523Z,102069.53
2023-04-05T04:12:47.539Z,102061.16
2023-04-05T04:15:19.138Z,102069.38
2023-04-05T04:17:56.131Z,102055.47
2023-04-05T04:20:29.246Z,102062.88
2023-04-05T04:22:58.132Z,102068.75
2023-04-05T04:25:26.613Z,102055.25
2023-04-05T04:27:57.511Z,102055.09
2023-04-05T04:30:25.831Z,102044.63
2023-04-05T04:33:05.447Z,102053.19
2023-04-05T04:35:34.956Z,102060.97
2023-04-05T04:38:04.982Z,102061.44
2023-04-05T04:40:41.673Z,102058.81
2023-04-05T04:43:17.173Z,102044.38
2023-04-05T04:45:48.292Z,102066.00
2023-04-05T04:48:16.997Z,102063.31
2023-04-05T04:50:45.654Z,102074.06
2023-04-05T04:53:20.461Z,102066.16
2023-04-05T04:55:50.053Z,102074.28
2023-04-05T04:58:17.973Z,102070.44
2023-04-05T05:00:45.282Z,102065.59
2023-04-05T05:03:13.541Z,102066.25
2023-04-05T05:05:50.163Z,102055.78
2023-04-05T05:08:19.561Z,102055.97
2023-04-05T05:10:53.602Z,102051.13
2023-04-05T05:13:20.741Z,102050.63
2023-04-05T05:15:48.517Z,102041.31
2023-04-05T05:18:16.292Z,102051.22
2023-04-05T05:20:43.477Z,102053.00
2023-04-05T05:23:10.926Z,102056.72
2023-04-05T05:25:38.659Z,102071.19
2023-04-05T05:28:09.443Z,102064.34
2023-04-05T05:30:36.450Z,102061.28
2023-04-05T05:33:06.181Z,102069.88
2023-04-05T05:35:35.202Z,102062.91
2023-04-05T05:38:02.779Z,102074.41
2023-04-05T05:40:29.667Z,102076.09
2023-04-05T05:42:56.711Z,102068.72
2023-04-05T05:45:23.641Z,102066.25
2023-04-05T05:47:50.611Z,102058.91
2023-04-05T05:50:25.640Z,102076.28
2023-04-05T05:52:52.582Z,102069.97
2023-04-05T05:55:19.503Z,102065.78
2023-04-05T05:57:46.657Z,102069.03
2023-04-05T06:00:14.759Z,102071.03
2023-04-05T06:02:41.755Z,102079.97
2023-04-05T06:05:09.027Z,102070.53
2023-04-05T06:07:37.577Z,102077.16
2023-04-05T06:10:06.526Z,102074.31
2023-04-05T06:12:34.010Z,102078.91
2023-04-05T06:15:12.513Z,102083.50
2023-04-05T06:17:42.436Z,102083.16
2023-04-05T06:20:13.726Z,102084.06
2023-04-05T06:22:41.340Z,102082.00
2023-04-05T06:25:09.451Z,102069.53
2023-04-05T06:27:36.431Z,102074.63
2023-04-05T06:30:04.656Z,102082.41
2023-04-05T06:32:31.785Z,102076.97
2023-04-05T06:35:00.822Z,102079.56
2023-04-05T06:37:37.875Z,102073.66
2023-04-05T06:40:05.671Z,102076.16
2023-04-05T06:42:32.611Z,102068.97
2023-04-05T06:44:59.721Z,102075.13
2023-04-05T06:47:26.779Z,102080.72
2023-04-05T06:50:08.842Z,102075.00
2023-04-05T06:52:36.062Z,102068.34
2023-04-05T06:55:03.391Z,102064.34
2023-04-05T06:57:37.094Z,102070.47
2023-04-05T07:00:20.207Z,102068.72
2023-04-05T07:02:57.124Z,102073.19
2023-04-05T07:05:24.181Z,102067.59
2023-04-05T07:07:51.296Z,102074.03
2023-04-05T07:10:18.742Z,102073.41
2023-04-05T07:12:46.307Z,102067.38
2023-04-05T07:15:13.463Z,102070.31
2023-04-05T07:17:40.588Z,102076.03
2023-04-05T07:20:08.303Z,102086.00
2023-04-05T07:22:35.854Z,102081.97
2023-04-05T07:25:02.859Z,102083.47
2023-04-05T07:27:31.319Z,102074.53
2023-04-05T07:29:58.412Z,102067.63
2023-04-05T07:32:29.472Z,102060.78
2023-04-05T07:34:56.826Z,102054.41
2023-04-05T07:37:27.437Z,102043.03
2023-04-05T07:39:54.404Z,102053.75
2023-04-05T07:42:22.134Z,102052.81
2023-04-05T07:44:49.186Z,102042.16
2023-04-05T07:47:16.267Z,102050.88
2023-04-05T07:49:44.433Z,102050.50
2023-04-05T07:52:11.536Z,102044.25
2023-04-05T07:54:39.974Z,102052.81
2023-04-05T07:57:07.480Z,102055.00
2023-04-05T07:59:35.475Z,102044.81
2023-04-05T08:02:12.327Z,102048.28
2023-04-05T08:04:47.230Z,102035.63
2023-04-05T08:07:14.428Z,102047.03
2023-04-05T08:09:41.495Z,102050.06
2023-04-05T08:12:08.654Z,102049.34
2023-04-05T08:14:35.998Z,102037.28
2023-04-05T08:17:02.926Z,102025.09
2023-04-05T08:19:29.989Z,102030.91
2023-04-05T08:21:57.195Z,102030.13
2023-04-05T08:24:24.255Z,102029.84
2023-04-05T08:26:51.555Z,102038.66
2023-04-05T08:29:18.581Z,102029.59
2023-04-05T08:31:45.561Z,102028.38
2023-04-05T08:34:12.763Z,102025.97
2023-04-05T08:36:39.779Z,102023.25
2023-04-05T08:39:06.821Z,102030.41
2023-04-05T08:41:42.275Z,102035.09
2023-04-05T08:44:10.830Z,102035.66
2023-04-05T08:46:38.574Z,102028.00
2023-04-05T08:49:07.992Z,102035.97
2023-04-05T08:51:41.198Z,102019.38
2023-04-05T08:54:08.538Z,102026.91
2023-04-05T08:56:36.789Z,102029.34
2023-04-05T08:59:16.338Z,102030.09
2023-04-05T09:01:45.800Z,102030.31
2023-04-05T09:04:18.693Z,102030.34
2023-04-05T09:06:46.268Z,102035.28
2023-04-05T09:09:21.684Z,102011.56
2023-04-05T09:11:50.373Z,102036.81
2023-04-05T09:14:18.813Z,102015.16
2023-04-05T09:16:51.390Z,102027.81
2023-04-05T09:19:21.236Z,102021.44
2023-04-05T09:22:06.952Z,102027.84
2023-04-05T09:24:47.450Z,102014.91
2023-04-05T09:27:19.782Z,102022.41
2023-04-05T09:29:53.642Z,102009.56
2023-04-05T09:32:38.734Z,102013.97
2023-04-05T09:35:06.474Z,102012.59
2023-04-05T09:37:35.775Z,102014.88
2023-04-05T09:40:06.945Z,102016.22
2023-04-05T09:42:46.073Z,102018.34
2023-04-05T09:45:14.210Z,102022.03
2023-04-05T09:47:42.188Z,102009.00
2023-04-05T09:50:15.622Z,102005.78
2023-04-05T09:52:44.358Z,102000.38
2023-04-05T09:55:12.211Z,101988.00
2023-04-05T09:57:41.598Z,101989.22
2023-04-05T10:00:19.644Z,101994.66
2023-04-05T10:02:52.361Z,101998.25
2023-04-05T10:05:24.281Z,101990.44
2023-04-05T10:07:52.389Z,101999.38
2023-04-05T10:10:24.998Z,101985.06
2023-04-05T10:12:54.150Z,101983.06
2023-04-05T10:15:21.408Z,101990.00
2023-04-05T10:18:06.088Z,101993.50
2023-04-05T10:20:39.668Z,101980.31
2023-04-05T10:23:18.060Z,101993.28
2023-04-05T10:25:57.295Z,101990.91
2023-04-05T10:28:35.810Z,101985.47
2023-04-05T10:31:42.439Z,101983.59
2023-04-05T10:34:24.392Z,101979.16
2023-04-05T10:36:57.176Z,101980.53
2023-04-05T10:39:43.196Z,101969.97
2023-04-05T10:42:27.908Z,101984.75
2023-04-05T10:45:04.707Z,101983.53
2023-04-05T10:47:39.048Z,101968.22
2023-04-05T10:50:15.083Z,101971.94
2023-04-05T10:52:42.684Z,101965.00
2023-04-05T10:55:10.744Z,101952.66
2023-04-05T10:57:38.707Z,101953.59
2023-04-05T11:00:07.220Z,101969.34
2023-04-05T11:02:36.588Z,101960.53
2023-04-05T11:05:08.796Z,101957.56
2023-04-05T11:07:46.126Z,101951.56
2023-04-05T11:10:18.735Z,101951.78
2023-04-05T11:12:48.756Z,101938.81
2023-04-05T11:15:28.097Z,101940.25
2023-04-05T11:18:11.664Z,101933.56
2023-04-05T11:20:51.838Z,101932.88
2023-04-05T11:23:25.823Z,101934.81
2023-04-05T11:25:57.725Z,101939.13
2023-04-05T11:28:40.550Z,101925.28
2023-04-05T11:31:19.360Z,101921.16
2023-04-05T11:33:58.608Z,101922.44
2023-04-05T11:36:45.542Z,101921.28
2023-04-05T11:39:18.689Z,101919.88
2023-04-05T11:41:53.610Z,101929.31
2023-04-05T11:44:22.126Z,101917.41
2023-04-05T11:46:49.545Z,101924.94
2023-04-05T11:49:16.833Z,101914.28
2023-04-05T11:51:44.289Z,101903.25
2023-04-05T11:54:11.228Z,101905.28
2023-04-05T11:56:38.192Z,101894.66
2023-04-05T11:59:05.135Z,101890.28
2023-04-05T12:01:32.023Z,101896.06
2023-04-05T12:03:59.143Z,101886.34
2023-04-05T12:06:27.091Z,101889.38
2023-04-05T12:08:55.953Z,101891.56
2023-04-05T12:11:28.369Z,101884.03
2023-04-05T12:14:01.002Z,101883.25
2023-04-05T12:16:29.798Z,101891.75
2023-04-05T12:19:00.999Z,101873.06
2023-04-05T12:21:28.669Z,101877.13
2023-04-05T12:23:55.799Z,101875.16
2023-04-05T12:26:23.238Z,101866.09
2023-04-05T12:28:58.492Z,101864.56
2023-04-05T12:31:47.156Z,101871.34
2023-04-05T12:34:15.058Z,101863.56
2023-04-05T12:36:46.654Z,101846.94
2023-04-05T12:39:17.510Z,101854.69
2023-04-05T12:41:44.490Z,101844.81
2023-04-05T12:44:30.283Z,101849.03
2023-04-05T12:47:02.765Z,101849.09
2023-04-05T12:49:29.860Z,101846.84
2023-04-05T12:52:04.466Z,101843.22
2023-04-05T12:54:32.346Z,101835.34
2023-04-05T12:57:02.137Z,101846.69
2023-04-05T12:59:29.222Z,101836.41
2023-04-05T13:01:56.171Z,101838.28
2023-04-05T13:04:23.404Z,101844.16
2023-04-05T13:06:50.451Z,101835.53
2023-04-05T13:09:17.399Z,101832.00
2023-04-05T13:11:44.742Z,101832.16
2023-04-05T13:14:11.752Z,101819.75
2023-04-05T13:16:38.861Z,101832.34
2023-04-05T13:19:05.841Z,101822.25
2023-04-05T13:21:32.973Z,101816.78
2023-04-05T13:24:00.122Z,101812.78
2023-04-05T13:26:27.606Z,101800.13
2023-04-05T13:28:54.494Z,101810.25
2023-04-05T13:31:21.465Z,101813.94
2023-04-05T13:33:48.376Z,101798.00
2023-04-05T13:36:15.735Z,101805.53
2023-04-05T13:38:42.692Z,101797.59
2023-04-05T13:41:09.753Z,101793.53
2023-04-05T13:43:36.693Z,101803.72
2023-04-05T13:46:03.711Z,101792.94
2023-04-05T13:48:30.653Z,101789.53
2023-04-05T13:50:57.583Z,101785.31
2023-04-05T13:53:26.539Z,101786.34
2023-04-05T13:55:54.931Z,101780.69
2023-04-05T13:58:21.803Z,101774.72
2023-04-05T14:00:48.770Z,101772.34
2023-04-05T14:03:16.283Z,101776.34
2023-04-05T14:05:43.256Z,101763.44
2023-04-05T14:08:10.168Z,101757.34
2023-04-05T14:10:37.236Z,101754.47
2023-04-05T14:13:04.146Z,101762.91
2023-04-05T14:15:31.806Z,101739.66
2023-04-05T14:17:58.854Z,101744.78
2023-04-05T14:20:25.983Z,101740.06
2023-04-05T14:22:52.956Z,101758.38
2023-04-05T14:25:19.895Z,101736.22
2023-04-05T14:27:47.045Z,101731.91
2023-04-05T14:30:14.293Z,101728.34
2023-04-05T14:32:41.648Z,101731.59
2023-04-05T14:35:09.399Z,101733.78
2023-04-05T14:37:36.586Z,101729.88
2023-04-05T14:40:03.798Z,101732.19
2023-04-05T14:42:45.283Z,101721.75
2023-04-05T14:45:16.482Z,101725.94
2023-04-05T14:47:43.496Z,101724.28
2023-04-05T14:50:11.044Z,101708.53
2023-04-05T14:52:39.911Z,101710.81
2023-04-05T14:55:07.406Z,101704.91
2023-04-05T14:57:35.664Z,101703.16
2023-04-05T15:00:02.806Z,101704.66
2023-04-05T15:02:31.601Z,101697.81
2023-04-05T15:05:01.296Z,101694.81
2023-04-05T15:07:28.638Z,101704.88
2023-04-05T15:09:55.761Z,101693.06
2023-04-05T15:12:23.135Z,101694.03
2023-04-05T15:14:54.477Z,101694.34
2023-04-05T15:17:21.991Z,101687.97
2023-04-05T15:19:48.978Z,101680.56
2023-04-05T15:22:16.311Z,101683.56
2023-04-05T15:24:44.349Z,101687.38
2023-04-05T15:27:11.932Z,101677.88
2023-04-05T15:29:38.921Z,101681.09
2023-04-05T15:32:06.247Z,101682.88
2023-04-05T15:34:33.260Z,101671.06
2023-04-05T15:37:00.375Z,101669.28
2023-04-05T15:39:27.289Z,101677.25
2023-04-05T15:41:57.739Z,101672.31
2023-04-05T15:44:24.756Z,101678.28
2023-04-05T15:46:51.727Z,101669.66
2023-04-05T15:49:18.727Z,101655.41
2023-04-05T15:51:45.699Z,101654.59
2023-04-05T15:54:18.487Z,101652.81
2023-04-05T15:56:45.848Z,101654.06
2023-04-05T15:59:14.271Z,101652.97
2023-04-05T16:01:41.587Z,101644.06
2023-04-05T16:04:08.837Z,101638.31
2023-04-05T16:06:35.835Z,101653.28
2023-04-05T16:09:02.988Z,101643.13
2023-04-05T16:11:30.950Z,101647.47
2023-04-05T16:13:58.633Z,101638.44
2023-04-05T16:16:35.377Z,101633.78
2023-04-05T16:19:10.420Z,101643.84
2023-04-05T16:21:37.387Z,101645.09
2023-04-05T16:24:05.448Z,101639.03
2023-04-05T16:26:32.426Z,101635.66
2023-04-05T16:28:59.617Z,101639.72
2023-04-05T16:31:27.168Z,101635.31
2023-04-05T16:33:54.646Z,101638.63
2023-04-05T16:36:21.639Z,101632.72
2023-04-05T16:38:48.918Z,101634.00
2023-04-05T16:41:15.988Z,101634.44
2023-04-05T16:43:43.165Z,101635.22
2023-04-05T16:46:10.187Z,101631.97
2023-04-05T16:48:37.122Z,101628.44
2023-04-05T16:51:06.417Z,101621.50
2023-04-05T16:53:34.026Z,101617.38
2023-04-05T16:56:01.109Z,101624.00
2023-04-05T16:58:28.110Z,101625.69
2023-04-05T17:00:58.707Z,101622.38
2023-04-05T17:03:26.417Z,101626.09
2023-04-05T17:05:53.574Z,101626.34
2023-04-05T17:08:20.544Z,101625.81
2023-04-05T17:10:47.704Z,101634.22
2023-04-05T17:13:15.016Z,101626.00
2023-04-05T17:15:42.709Z,101632.72
2023-04-05T17:18:11.657Z,101623.50
2023-04-05T17:20:38.762Z,101620.56
2023-04-05T17:23:05.968Z,101613.63
2023-04-05T17:25:32.915Z,101612.00
2023-04-05T17:28:00.106Z,101618.97
2023-04-05T17:30:27.165Z,101612.28
2023-04-05T17:32:54.110Z,101616.34
2023-04-05T17:35:21.058Z,101615.88
2023-04-05T17:37:48.116Z,101612.38
2023-04-05T17:40:16.289Z,101614.22
2023-04-05T17:42:43.264Z,101617.22
2023-04-05T17:45:11.373Z,101604.09
2023-04-05T17:47:38.679Z,101605.00
2023-04-05T17:50:06.527Z,101603.97
2023-04-05T17:52:33.540Z,101605.22
2023-04-05T17:55:00.662Z,101607.16
2023-04-05T17:57:27.616Z,101602.69
2023-04-05T17:59:54.712Z,101601.53
2023-04-05T18:02:21.827Z,101608.47
2023-04-05T18:04:49.200Z,101607.50
2023-04-05T18:07:16.215Z,101616.78
2023-04-05T18:09:43.204Z,101609.75
2023-04-05T18:12:10.655Z,101597.44
2023-04-05T18:14:37.859Z,101612.34
2023-04-05T18:17:07.443Z,101617.03
2023-04-05T18:19:34.717Z,101615.72
2023-04-05T18:22:02.013Z,101609.50
2023-04-05T18:24:29.576Z,101614.88
2023-04-05T18:26:57.648Z,101606.19
2023-04-05T18:29:28.497Z,101604.50
2023-04-05T18:31:56.710Z,101614.38
2023-04-05T18:34:24.213Z,101607.31
2023-04-05T18:36:51.322Z,101617.41
2023-04-05T18:39:20.137Z,101617.63
2023-04-05T18:41:47.325Z,101616.56
2023-04-05T18:44:14.354Z,101618.63
2023-04-05T18:46:42.627Z,101616.75
2023-04-05T18:49:09.874Z,101631.88
2023-04-05T18:51:37.613Z,101616.41
2023-04-05T18:54:04.831Z,101621.59
2023-04-05T18:56:31.805Z,101616.97
2023-04-05T18:58:58.837Z,101623.53
2023-04-05T19:01:26.081Z,101630.38
2023-04-05T19:03:53.181Z,101631.47
2023-04-05T19:06:20.332Z,101638.25
2023-04-05T19:08:48.194Z,101628.63
2023-04-05T19:11:15.457Z,101637.84
2023-04-05T19:13:42.468Z,101638.09
2023-04-05T19:16:09.508Z,101639.53
2023-04-05T19:18:36.550Z,101632.53
2023-04-05T19:21:03.745Z,101643.91
2023-04-05T19:23:31.354Z,101657.66
2023-04-05T19:25:58.940Z,101641.91
2023-04-05T19:28:27.146Z,101643.66
2023-04-05T19:30:54.686Z,101651.50
2023-04-05T19:33:22.053Z,101647.66
2023-04-05T19:35:49.357Z,101646.66
2023-04-05T19:38:16.473Z,101644.88
2023-04-05T19:40:43.487Z,101648.81
2023-04-05T19:43:11.587Z,101642.41
2023-04-05T19:45:38.613Z,101637.47
2023-04-05T19:48:36.792Z,101642.06
2023-04-05T19:51:14.098Z,101637.50
2023-04-05T19:53:51.581Z,101634.63
2023-04-05T19:56:28.416Z,101635.88
2023-04-05T19:59:11.084Z,101636.06
2023-04-05T20:01:42.379Z,101634.66
2023-04-05T20:04:19.515Z,101627.84
2023-04-05T20:06:53.168Z,101636.88
2023-04-05T20:09:25.514Z,101632.19
2023-04-05T20:12:06.237Z,101627.22
2023-04-05T20:14:45.717Z,101629.31
2023-04-05T20:17:13.311Z,101621.09
2023-04-05T20:19:56.651Z,101622.31
2023-04-05T20:22:24.090Z,101627.41
2023-04-05T20:24:51.850Z,101625.19
2023-04-05T20:27:18.809Z,101619.03
2023-04-05T20:29:46.145Z,101622.50
2023-04-05T20:32:14.087Z,101618.22
2023-04-05T20:34:43.780Z,101629.66
2023-04-05T20:37:13.006Z,101617.78
2023-04-05T20:39:40.024Z,101611.44
2023-04-05T20:42:09.371Z,101602.81
2023-04-05T20:44:36.447Z,101599.75
2023-04-05T20:47:03.522Z,101604.66
2023-04-05T20:49:30.492Z,101602.00
2023-04-05T20:51:58.071Z,101602.56
2023-04-05T20:54:25.344Z,101594.59
2023-04-05T20:56:52.494Z,101595.63
2023-04-05T20:59:19.548Z,101589.69
2023-04-05T21:01:47.609Z,101583.75
2023-04-05T21:04:15.071Z,101577.59
2023-04-05T21:06:42.386Z,101585.38
2023-04-05T21:09:09.975Z,101573.06
2023-04-05T21:11:37.526Z,101570.19
2023-04-05T21:14:04.656Z,101581.47
2023-04-05T21:16:31.923Z,101578.19
2023-04-05T21:18:58.943Z,101576.75
2023-04-05T21:21:26.255Z,101579.44
2023-04-05T21:23:53.298Z,101576.16
2023-04-05T21:26:21.317Z,101573.28
2023-04-05T21:28:48.277Z,101579.16
2023-04-05T21:31:15.548Z,101574.09
2023-04-05T21:33:42.569Z,101565.91
2023-04-05T21:36:09.782Z,101571.41
2023-04-05T21:38:36.797Z,101566.31
2023-04-05T21:41:03.794Z,101555.22
2023-04-05T21:43:30.898Z,101559.94
2023-04-05T21:45:57.837Z,101566.91
2023-04-05T21:48:24.960Z,101555.03
2023-04-05T21:50:52.026Z,101560.56
2023-04-05T21:53:19.069Z,101560.75
2023-04-05T21:55:46.214Z,101560.38
2023-04-05T21:58:13.288Z,101552.38
2023-04-05T22:00:40.446Z,101543.03
2023-04-05T22:03:07.558Z,101538.09
2023-04-05T22:05:38.679Z,101544.66
2023-04-05T22:08:07.531Z,101542.00
2023-04-05T22:10:35.784Z,101544.66
2023-04-05T22:13:02.888Z,101544.19
2023-04-05T22:15:29.952Z,101544.25
2023-04-05T22:17:56.948Z,101533.16
2023-04-05T22:20:23.894Z,101539.69
2023-04-05T22:22:51.067Z,101541.22
2023-04-05T22:25:17.980Z,101527.69
2023-04-05T22:27:44.948Z,101538.44
2023-04-05T22:30:12.308Z,101539.56
2023-04-05T22:32:39.275Z,101527.25
2023-04-05T22:35:07.003Z,101534.75
2023-04-05T22:37:36.557Z,101536.50
2023-04-05T22:40:04.924Z,101533.19
2023-04-05T22:42:32.135Z,101529.19
2023-04-05T22:44:59.564Z,101528.78
2023-04-05T22:47:27.292Z,101533.88
2023-04-05T22:49:54.599Z,101522.78
2023-04-05T22:52:21.835Z,101521.69
2023-04-05T22:54:48.851Z,101524.03
2023-04-05T22:57:16.319Z,101516.06
2023-04-05T22:59:43.464Z,101513.09
2023-04-05T23:02:12.381Z,101506.34
2023-04-05T23:04:39.731Z,101512.63
2023-04-05T23:07:06.871Z,101509.41
2023-04-05T23:09:33.923Z,101515.84
2023-04-05T23:12:01.005Z,101513.03
2023-04-05T23:14:28.079Z,101503.44
2023-04-05T23:16:55.115Z,101505.41
2023-04-05T23:19:22.287Z,101498.75
2023-04-05T23:21:49.336Z,101507.06
2023-04-05T23:24:16.287Z,101501.31
2023-04-05T23:26:43.269Z,101501.97
2023-04-05T23:29:10.743Z,101499.53
2023-04-05T23:31:37.792Z,101498.94
2023-04-05T23:34:04.883Z,101492.59
2023-04-05T23:36:32.455Z,101485.25
2023-04-05T23:39:02.635Z,101495.75
2023-04-05T23:41:29.791Z,101489.38
2023-04-05T23:43:56.926Z,101493.50
2023-04-05T23:46:23.956Z,101486.91
2023-04-05T23:48:51.103Z,101487.94
2023-04-05T23:51:18.332Z,101482.75
2023-04-05T23:53:45.578Z,101485.25
2023-04-05T23:56:12.566Z,101482.16
2023-04-05T23:58:42.222Z,101472.16
